sensor_id;sensor_type;location;lat;lon;timestamp;temperature;humidity
27376;DHT22;14844;51.302;6.354;2023-12-14T00:05:41;8.00;99.90
27376;DHT22;14844;51.302;6.354;2023-12-14T00:42:52;7.80;99.90
27376;DHT22;14844;51.302;6.354;2023-12-14T00:53:11;7.60;99.90
27376;DHT22;14844;51.302;6.354;2023-12-14T00:56:52;7.50;99.90
27376;DHT22;14844;51.302;6.354;2023-12-14T01:00:41;7.50;99.90
27376;DHT22;14844;51.302;6.354;2023-12-14T01:14:22;7.30;99.90
27376;DHT22;14844;51.302;6.354;2023-12-14T03:59:34;6.10;99.90
27376;DHT22;14844;51.302;6.354;2023-12-14T04:02:20;6.10;99.90
27376;DHT22;14844;51.302;6.354;2023-12-14T04:04:50;6.00;99.90
27376;DHT22;14844;51.302;6.354;2023-12-14T04:07:53;6.10;99.90
27376;DHT22;14844;51.302;6.354;2023-12-14T04:10:50;6.10;99.90
27376;DHT22;14844;51.302;6.354;2023-12-14T04:13:23;6.10;99.90
27376;DHT22;14844;51.302;6.354;2023-12-14T07:14:00;5.50;99.90
27376;DHT22;14844;51.302;6.354;2023-12-14T07:27:36;5.40;99.90
27376;DHT22;14844;51.302;6.354;2023-12-14T07:37:53;5.40;99.90
27376;DHT22;14844;51.302;6.354;2023-12-14T07:40:18;5.40;99.90
27376;DHT22;14844;51.302;6.354;2023-12-14T07:42:44;5.40;99.90
27376;DHT22;14844;51.302;6.354;2023-12-14T07:45:10;5.40;99.90
27376;DHT22;14844;51.302;6.354;2023-12-14T07:47:36;5.50;99.90
27376;DHT22;14844;51.302;6.354;2023-12-14T07:50:02;5.50;99.90
27376;DHT22;14844;51.302;6.354;2023-12-14T07:52:27;5.50;99.90
27376;DHT22;14844;51.302;6.354;2023-12-14T07:54:53;5.50;99.90
27376;DHT22;14844;51.302;6.354;2023-12-14T07:57:19;5.50;99.90
27376;DHT22;14844;51.302;6.354;2023-12-14T07:59:44;5.50;99.90
27376;DHT22;14844;51.302;6.354;2023-12-14T08:02:11;5.50;99.90
27376;DHT22;14844;51.302;6.354;2023-12-14T08:04:37;5.60;99.90
27376;DHT22;14844;51.302;6.354;2023-12-14T08:07:03;5.60;99.90
27376;DHT22;14844;51.302;6.354;2023-12-14T08:09:28;5.60;99.90
27376;DHT22;14844;51.302;6.354;2023-12-14T08:11:54;5.70;99.90
27376;DHT22;14844;51.302;6.354;2023-12-14T08:14:20;5.60;99.90
27376;DHT22;14844;51.302;6.354;2023-12-14T08:16:45;5.60;99.90
27376;DHT22;14844;51.302;6.354;2023-12-14T08:19:11;5.60;99.90
27376;DHT22;14844;51.302;6.354;2023-12-14T08:21:36;5.60;99.90
27376;DHT22;14844;51.302;6.354;2023-12-14T08:24:02;5.50;99.90
27376;DHT22;14844;51.302;6.354;2023-12-14T08:26:28;5.50;99.90
27376;DHT22;14844;51.302;6.354;2023-12-14T08:28:53;5.50;99.90
27376;DHT22;14844;51.302;6.354;2023-12-14T08:31:19;5.60;99.90
27376;DHT22;14844;51.302;6.354;2023-12-14T08:33:44;5.60;99.90
27376;DHT22;14844;51.302;6.354;2023-12-14T08:36:10;5.60;99.90
27376;DHT22;14844;51.302;6.354;2023-12-14T08:38:36;5.60;99.90
27376;DHT22;14844;51.302;6.354;2023-12-14T08:41:02;5.60;99.90
27376;DHT22;14844;51.302;6.354;2023-12-14T08:43:28;5.60;99.90
27376;DHT22;14844;51.302;6.354;2023-12-14T08:45:53;5.60;99.90
27376;DHT22;14844;51.302;6.354;2023-12-14T08:48:22;5.60;99.90
27376;DHT22;14844;51.302;6.354;2023-12-14T08:50:48;5.60;99.90
27376;DHT22;14844;51.302;6.354;2023-12-14T08:53:13;5.60;99.90
27376;DHT22;14844;51.302;6.354;2023-12-14T08:55:39;5.60;99.90
27376;DHT22;14844;51.302;6.354;2023-12-14T08:58:07;5.60;99.90
27376;DHT22;14844;51.302;6.354;2023-12-14T09:00:33;5.60;99.90
27376;DHT22;14844;51.302;6.354;2023-12-14T09:02:58;5.60;99.90
27376;DHT22;14844;51.302;6.354;2023-12-14T09:05:24;5.70;99.90
27376;DHT22;14844;51.302;6.354;2023-12-14T09:07:49;5.70;99.90
27376;DHT22;14844;51.302;6.354;2023-12-14T09:10:18;5.70;99.90
27376;DHT22;14844;51.302;6.354;2023-12-14T09:12:43;5.70;99.90
27376;DHT22;14844;51.302;6.354;2023-12-14T09:15:09;5.80;99.90
27376;DHT22;14844;51.302;6.354;2023-12-14T09:17:35;5.80;99.90
27376;DHT22;14844;51.302;6.354;2023-12-14T09:20:00;5.80;99.90
27376;DHT22;14844;51.302;6.354;2023-12-14T09:22:26;5.90;99.90
27376;DHT22;14844;51.302;6.354;2023-12-14T09:24:52;5.80;99.90
27376;DHT22;14844;51.302;6.354;2023-12-14T09:27:18;5.80;99.90
27376;DHT22;14844;51.302;6.354;2023-12-14T09:29:43;5.80;99.90
27376;DHT22;14844;51.302;6.354;2023-12-14T09:32:09;5.90;99.90
27376;DHT22;14844;51.302;6.354;2023-12-14T09:34:35;5.90;99.90
27376;DHT22;14844;51.302;6.354;2023-12-14T09:37:01;6.00;99.90
27376;DHT22;14844;51.302;6.354;2023-12-14T09:39:26;5.90;99.90
27376;DHT22;14844;51.302;6.354;2023-12-14T09:42:03;6.00;99.90
27376;DHT22;14844;51.302;6.354;2023-12-14T09:44:30;6.00;99.90
27376;DHT22;14844;51.302;6.354;2023-12-14T09:46:58;6.00;99.90
27376;DHT22;14844;51.302;6.354;2023-12-14T09:49:26;5.90;99.90
27376;DHT22;14844;51.302;6.354;2023-12-14T09:51:57;5.90;99.90
27376;DHT22;14844;51.302;6.354;2023-12-14T09:54:23;5.80;99.90
27376;DHT22;14844;51.302;6.354;2023-12-14T09:56:49;5.80;99.90
27376;DHT22;14844;51.302;6.354;2023-12-14T09:59:15;5.80;99.90
27376;DHT22;14844;51.302;6.354;2023-12-14T10:01:42;5.80;99.90
27376;DHT22;14844;51.302;6.354;2023-12-14T10:04:15;5.80;99.90
27376;DHT22;14844;51.302;6.354;2023-12-14T10:06:42;5.70;99.90
27376;DHT22;14844;51.302;6.354;2023-12-14T10:09:08;5.70;99.90
27376;DHT22;14844;51.302;6.354;2023-12-14T10:11:44;5.70;99.90
27376;DHT22;14844;51.302;6.354;2023-12-14T10:14:23;5.70;99.90
27376;DHT22;14844;51.302;6.354;2023-12-14T10:16:50;5.70;99.90
27376;DHT22;14844;51.302;6.354;2023-12-14T10:19:17;5.70;99.90
27376;DHT22;14844;51.302;6.354;2023-12-14T10:21:43;5.70;99.90
27376;DHT22;14844;51.302;6.354;2023-12-14T10:24:09;5.70;99.90
27376;DHT22;14844;51.302;6.354;2023-12-14T10:26:35;5.60;99.90
27376;DHT22;14844;51.302;6.354;2023-12-14T10:29:01;5.60;99.90
27376;DHT22;14844;51.302;6.354;2023-12-14T10:31:30;5.50;99.90
27376;DHT22;14844;51.302;6.354;2023-12-14T10:33:56;5.50;99.90
27376;DHT22;14844;51.302;6.354;2023-12-14T10:36:25;5.50;99.90
27376;DHT22;14844;51.302;6.354;2023-12-14T10:38:57;5.60;99.90
27376;DHT22;14844;51.302;6.354;2023-12-14T10:41:24;5.70;99.90
27376;DHT22;14844;51.302;6.354;2023-12-14T10:43:54;5.70;99.90
27376;DHT22;14844;51.302;6.354;2023-12-14T10:46:20;5.70;99.90
27376;DHT22;14844;51.302;6.354;2023-12-14T10:48:47;5.70;99.90
27376;DHT22;14844;51.302;6.354;2023-12-14T10:51:15;5.70;99.90
27376;DHT22;14844;51.302;6.354;2023-12-14T10:53:43;5.70;99.90
27376;DHT22;14844;51.302;6.354;2023-12-14T10:56:13;5.70;99.90
27376;DHT22;14844;51.302;6.354;2023-12-14T10:58:51;5.70;99.90
27376;DHT22;14844;51.302;6.354;2023-12-14T11:01:19;5.70;99.90
27376;DHT22;14844;51.302;6.354;2023-12-14T11:03:47;5.70;99.90
27376;DHT22;14844;51.302;6.354;2023-12-14T11:09:02;5.70;99.90
27376;DHT22;14844;51.302;6.354;2023-12-14T11:11:57;5.70;99.90
27376;DHT22;14844;51.302;6.354;2023-12-14T11:14:25;5.70;99.90
27376;DHT22;14844;51.302;6.354;2023-12-14T11:16:56;5.60;99.90
27376;DHT22;14844;51.302;6.354;2023-12-14T11:21:56;5.50;99.90
27376;DHT22;14844;51.302;6.354;2023-12-14T11:24:37;5.50;99.90
27376;DHT22;14844;51.302;6.354;2023-12-14T11:27:06;5.60;99.90
27376;DHT22;14844;51.302;6.354;2023-12-14T11:29:33;5.60;99.90
27376;DHT22;14844;51.302;6.354;2023-12-14T11:31:58;5.70;99.90
27376;DHT22;14844;51.302;6.354;2023-12-14T11:34:25;5.70;99.90
27376;DHT22;14844;51.302;6.354;2023-12-14T11:36:50;5.70;99.90
27376;DHT22;14844;51.302;6.354;2023-12-14T11:39:16;5.70;99.90
27376;DHT22;14844;51.302;6.354;2023-12-14T11:41:42;5.70;99.90
27376;DHT22;14844;51.302;6.354;2023-12-14T11:44:07;5.70;99.90
27376;DHT22;14844;51.302;6.354;2023-12-14T11:46:33;5.70;99.90
27376;DHT22;14844;51.302;6.354;2023-12-14T11:48:58;5.70;99.90
27376;DHT22;14844;51.302;6.354;2023-12-14T11:51:24;5.60;99.90
27376;DHT22;14844;51.302;6.354;2023-12-14T11:53:55;5.60;99.90
27376;DHT22;14844;51.302;6.354;2023-12-14T11:56:21;5.60;99.90
27376;DHT22;14844;51.302;6.354;2023-12-14T11:58:48;5.60;99.90
27376;DHT22;14844;51.302;6.354;2023-12-14T12:01:15;5.60;99.90
27376;DHT22;14844;51.302;6.354;2023-12-14T12:03:42;5.50;99.90
27376;DHT22;14844;51.302;6.354;2023-12-14T12:06:20;5.50;99.90
27376;DHT22;14844;51.302;6.354;2023-12-14T12:08:46;5.40;99.90
27376;DHT22;14844;51.302;6.354;2023-12-14T12:11:19;5.40;99.90
27376;DHT22;14844;51.302;6.354;2023-12-14T12:13:53;5.40;99.90
27376;DHT22;14844;51.302;6.354;2023-12-14T12:16:18;5.30;99.90
27376;DHT22;14844;51.302;6.354;2023-12-14T12:18:44;5.20;99.90
27376;DHT22;14844;51.302;6.354;2023-12-14T12:21:11;5.20;99.90
27376;DHT22;14844;51.302;6.354;2023-12-14T12:23:37;5.20;99.90
27376;DHT22;14844;51.302;6.354;2023-12-14T12:26:02;5.20;99.90
27376;DHT22;14844;51.302;6.354;2023-12-14T12:28:29;5.20;99.90
27376;DHT22;14844;51.302;6.354;2023-12-14T12:30:55;5.20;99.90
27376;DHT22;14844;51.302;6.354;2023-12-14T12:33:21;5.20;99.90
27376;DHT22;14844;51.302;6.354;2023-12-14T12:35:46;5.20;99.90
27376;DHT22;14844;51.302;6.354;2023-12-14T12:38:12;5.20;99.90
27376;DHT22;14844;51.302;6.354;2023-12-14T12:40:37;5.30;99.90
27376;DHT22;14844;51.302;6.354;2023-12-14T12:43:04;5.30;99.90
27376;DHT22;14844;51.302;6.354;2023-12-14T12:45:29;5.30;99.90
27376;DHT22;14844;51.302;6.354;2023-12-14T12:47:55;5.30;99.90
27376;DHT22;14844;51.302;6.354;2023-12-14T12:50:21;5.30;99.90
27376;DHT22;14844;51.302;6.354;2023-12-14T12:52:46;5.30;99.90
27376;DHT22;14844;51.302;6.354;2023-12-14T12:55:14;5.30;99.90
27376;DHT22;14844;51.302;6.354;2023-12-14T12:57:40;5.30;99.90
27376;DHT22;14844;51.302;6.354;2023-12-14T13:00:10;5.30;99.90
27376;DHT22;14844;51.302;6.354;2023-12-14T13:02:39;5.30;99.90
27376;DHT22;14844;51.302;6.354;2023-12-14T13:05:06;5.30;99.90
27376;DHT22;14844;51.302;6.354;2023-12-14T13:07:33;5.30;99.90
27376;DHT22;14844;51.302;6.354;2023-12-14T13:09:59;5.20;99.90
27376;DHT22;14844;51.302;6.354;2023-12-14T13:12:25;5.20;99.90
27376;DHT22;14844;51.302;6.354;2023-12-14T13:14:51;5.20;99.90
27376;DHT22;14844;51.302;6.354;2023-12-14T13:17:17;5.20;99.90
27376;DHT22;14844;51.302;6.354;2023-12-14T13:19:44;5.20;99.90
27376;DHT22;14844;51.302;6.354;2023-12-14T13:22:09;5.20;99.90
27376;DHT22;14844;51.302;6.354;2023-12-14T13:24:37;5.30;99.90
27376;DHT22;14844;51.302;6.354;2023-12-14T13:27:02;5.30;99.90
27376;DHT22;14844;51.302;6.354;2023-12-14T13:29:29;5.30;99.90
27376;DHT22;14844;51.302;6.354;2023-12-14T13:32:01;5.30;99.90
27376;DHT22;14844;51.302;6.354;2023-12-14T13:34:34;5.30;99.90
27376;DHT22;14844;51.302;6.354;2023-12-14T13:37:00;5.40;99.90
27376;DHT22;14844;51.302;6.354;2023-12-14T13:39:26;5.40;99.90
27376;DHT22;14844;51.302;6.354;2023-12-14T13:41:52;5.40;99.90
27376;DHT22;14844;51.302;6.354;2023-12-14T13:44:18;5.40;99.90
27376;DHT22;14844;51.302;6.354;2023-12-14T13:46:43;5.40;99.90
27376;DHT22;14844;51.302;6.354;2023-12-14T13:49:09;5.40;99.90
27376;DHT22;14844;51.302;6.354;2023-12-14T13:51:35;5.40;99.90
27376;DHT22;14844;51.302;6.354;2023-12-14T13:54:01;5.40;99.90
27376;DHT22;14844;51.302;6.354;2023-12-14T13:56:26;5.40;99.90
27376;DHT22;14844;51.302;6.354;2023-12-14T13:58:53;5.40;99.90
27376;DHT22;14844;51.302;6.354;2023-12-14T14:01:18;5.40;99.90
27376;DHT22;14844;51.302;6.354;2023-12-14T14:03:44;5.50;99.90
27376;DHT22;14844;51.302;6.354;2023-12-14T14:06:12;5.50;99.90
27376;DHT22;14844;51.302;6.354;2023-12-14T14:08:38;5.50;99.90
27376;DHT22;14844;51.302;6.354;2023-12-14T14:11:03;5.50;99.90
27376;DHT22;14844;51.302;6.354;2023-12-14T14:13:29;5.50;99.90
27376;DHT22;14844;51.302;6.354;2023-12-14T14:15:55;5.50;99.90
27376;DHT22;14844;51.302;6.354;2023-12-14T14:18:21;5.50;99.90
27376;DHT22;14844;51.302;6.354;2023-12-14T14:20:47;5.50;99.90
27376;DHT22;14844;51.302;6.354;2023-12-14T14:23:13;5.50;99.90
27376;DHT22;14844;51.302;6.354;2023-12-14T14:25:38;5.50;99.90
27376;DHT22;14844;51.302;6.354;2023-12-14T14:28:27;5.50;99.90
27376;DHT22;14844;51.302;6.354;2023-12-14T14:30:55;5.50;99.90
27376;DHT22;14844;51.302;6.354;2023-12-14T14:33:23;5.50;99.90
27376;DHT22;14844;51.302;6.354;2023-12-14T14:35:50;5.50;99.90
27376;DHT22;14844;51.302;6.354;2023-12-14T14:38:16;5.50;99.90
27376;DHT22;14844;51.302;6.354;2023-12-14T14:40:43;5.50;99.90
27376;DHT22;14844;51.302;6.354;2023-12-14T14:43:09;5.60;99.90
27376;DHT22;14844;51.302;6.354;2023-12-14T14:45:35;5.60;99.90
27376;DHT22;14844;51.302;6.354;2023-12-14T14:48:03;5.60;99.90
27376;DHT22;14844;51.302;6.354;2023-12-14T14:50:34;5.60;99.90
27376;DHT22;14844;51.302;6.354;2023-12-14T14:53:00;5.70;99.90
27376;DHT22;14844;51.302;6.354;2023-12-14T14:55:25;5.70;99.90
27376;DHT22;14844;51.302;6.354;2023-12-14T14:57:51;5.70;99.90
27376;DHT22;14844;51.302;6.354;2023-12-14T15:00:46;5.70;99.90
27376;DHT22;14844;51.302;6.354;2023-12-14T15:03:14;5.60;99.90
27376;DHT22;14844;51.302;6.354;2023-12-14T15:05:40;5.60;99.90
27376;DHT22;14844;51.302;6.354;2023-12-14T15:08:06;5.60;99.90
27376;DHT22;14844;51.302;6.354;2023-12-14T15:10:35;5.60;99.90
27376;DHT22;14844;51.302;6.354;2023-12-14T15:13:00;5.60;99.90
27376;DHT22;14844;51.302;6.354;2023-12-14T15:15:26;5.60;99.90
27376;DHT22;14844;51.302;6.354;2023-12-14T15:17:52;5.60;99.90
27376;DHT22;14844;51.302;6.354;2023-12-14T15:20:18;5.50;99.90
27376;DHT22;14844;51.302;6.354;2023-12-14T15:22:43;5.50;99.90
27376;DHT22;14844;51.302;6.354;2023-12-14T15:25:09;5.50;99.90
27376;DHT22;14844;51.302;6.354;2023-12-14T15:27:35;5.40;99.90
27376;DHT22;14844;51.302;6.354;2023-12-14T15:30:02;5.40;99.90
27376;DHT22;14844;51.302;6.354;2023-12-14T15:32:30;5.40;99.90
27376;DHT22;14844;51.302;6.354;2023-12-14T15:34:55;5.40;99.90
27376;DHT22;14844;51.302;6.354;2023-12-14T15:37:21;5.40;99.90
27376;DHT22;14844;51.302;6.354;2023-12-14T15:39:46;5.40;99.90
27376;DHT22;14844;51.302;6.354;2023-12-14T15:42:17;5.40;99.90
27376;DHT22;14844;51.302;6.354;2023-12-14T15:44:43;5.40;99.90
27376;DHT22;14844;51.302;6.354;2023-12-14T15:47:13;5.40;99.90
27376;DHT22;14844;51.302;6.354;2023-12-14T15:49:41;5.40;99.90
27376;DHT22;14844;51.302;6.354;2023-12-14T15:52:07;5.40;99.90
27376;DHT22;14844;51.302;6.354;2023-12-14T15:54:33;5.40;99.90
27376;DHT22;14844;51.302;6.354;2023-12-14T15:56:58;5.40;99.90
27376;DHT22;14844;51.302;6.354;2023-12-14T15:59:24;5.30;99.90
27376;DHT22;14844;51.302;6.354;2023-12-14T16:02:04;5.30;99.90
27376;DHT22;14844;51.302;6.354;2023-12-14T16:08:03;5.30;99.90
27376;DHT22;14844;51.302;6.354;2023-12-14T16:11:07;5.30;99.90
27376;DHT22;14844;51.302;6.354;2023-12-14T16:18:01;5.10;99.90
27376;DHT22;14844;51.302;6.354;2023-12-14T16:20:37;5.10;99.90
27376;DHT22;14844;51.302;6.354;2023-12-14T16:26:29;4.90;99.90
27376;DHT22;14844;51.302;6.354;2023-12-14T16:28:58;4.90;99.90
27376;DHT22;14844;51.302;6.354;2023-12-14T16:31:27;4.80;99.90
27376;DHT22;14844;51.302;6.354;2023-12-14T16:33:52;4.80;99.90
27376;DHT22;14844;51.302;6.354;2023-12-14T16:36:18;4.80;99.90
27376;DHT22;14844;51.302;6.354;2023-12-14T16:38:43;4.80;99.90
27376;DHT22;14844;51.302;6.354;2023-12-14T16:41:10;4.90;99.90
27376;DHT22;14844;51.302;6.354;2023-12-14T16:43:36;4.90;99.90
27376;DHT22;14844;51.302;6.354;2023-12-14T16:46:01;4.90;99.90
27376;DHT22;14844;51.302;6.354;2023-12-14T16:48:29;4.90;99.90
27376;DHT22;14844;51.302;6.354;2023-12-14T16:50:55;4.80;99.90
27376;DHT22;14844;51.302;6.354;2023-12-14T16:53:22;4.90;99.90
27376;DHT22;14844;51.302;6.354;2023-12-14T16:55:47;4.90;99.90
27376;DHT22;14844;51.302;6.354;2023-12-14T16:58:13;4.90;99.90
27376;DHT22;14844;51.302;6.354;2023-12-14T17:00:38;4.80;99.90
27376;DHT22;14844;51.302;6.354;2023-12-14T17:03:04;4.90;99.90
27376;DHT22;14844;51.302;6.354;2023-12-14T17:05:31;4.90;99.90
27376;DHT22;14844;51.302;6.354;2023-12-14T17:07:57;4.90;99.90
27376;DHT22;14844;51.302;6.354;2023-12-14T17:10:25;4.90;99.90
27376;DHT22;14844;51.302;6.354;2023-12-14T17:12:53;4.90;99.90
27376;DHT22;14844;51.302;6.354;2023-12-14T17:15:19;5.00;99.90
27376;DHT22;14844;51.302;6.354;2023-12-14T17:17:45;5.00;99.90
27376;DHT22;14844;51.302;6.354;2023-12-14T17:20:10;5.00;99.90
27376;DHT22;14844;51.302;6.354;2023-12-14T17:22:36;5.00;99.90
27376;DHT22;14844;51.302;6.354;2023-12-14T17:25:03;5.10;99.90
27376;DHT22;14844;51.302;6.354;2023-12-14T17:27:32;5.10;99.90
27376;DHT22;14844;51.302;6.354;2023-12-14T17:29:58;5.20;99.90
27376;DHT22;14844;51.302;6.354;2023-12-14T17:32:23;5.20;99.90
27376;DHT22;14844;51.302;6.354;2023-12-14T17:34:49;5.20;99.90
27376;DHT22;14844;51.302;6.354;2023-12-14T17:37:14;5.20;99.90
27376;DHT22;14844;51.302;6.354;2023-12-14T17:39:40;5.20;99.90
27376;DHT22;14844;51.302;6.354;2023-12-14T17:42:06;5.20;99.90
27376;DHT22;14844;51.302;6.354;2023-12-14T17:44:32;5.10;99.90
27376;DHT22;14844;51.302;6.354;2023-12-14T17:46:58;5.10;99.90
27376;DHT22;14844;51.302;6.354;2023-12-14T17:49:24;5.00;99.90
27376;DHT22;14844;51.302;6.354;2023-12-14T17:51:49;4.90;99.90
27376;DHT22;14844;51.302;6.354;2023-12-14T17:54:15;4.70;99.90
27376;DHT22;14844;51.302;6.354;2023-12-14T17:56:42;4.60;99.90
27376;DHT22;14844;51.302;6.354;2023-12-14T17:59:08;4.60;99.90
27376;DHT22;14844;51.302;6.354;2023-12-14T18:01:34;4.60;99.90
27376;DHT22;14844;51.302;6.354;2023-12-14T18:03:59;4.60;99.90
27376;DHT22;14844;51.302;6.354;2023-12-14T18:06:25;4.50;99.90
27376;DHT22;14844;51.302;6.354;2023-12-14T18:08:50;4.50;99.90
27376;DHT22;14844;51.302;6.354;2023-12-14T18:11:16;4.50;99.90
27376;DHT22;14844;51.302;6.354;2023-12-14T18:13:42;4.60;99.90
27376;DHT22;14844;51.302;6.354;2023-12-14T18:16:08;4.60;99.90
27376;DHT22;14844;51.302;6.354;2023-12-14T18:18:33;4.50;99.90
27376;DHT22;14844;51.302;6.354;2023-12-14T18:20:59;4.50;99.90
27376;DHT22;14844;51.302;6.354;2023-12-14T18:23:25;4.50;99.90
27376;DHT22;14844;51.302;6.354;2023-12-14T18:25:50;4.60;99.90
27376;DHT22;14844;51.302;6.354;2023-12-14T18:28:16;4.60;99.90
27376;DHT22;14844;51.302;6.354;2023-12-14T18:30:43;4.60;99.90
27376;DHT22;14844;51.302;6.354;2023-12-14T18:33:09;4.60;99.90
27376;DHT22;14844;51.302;6.354;2023-12-14T18:35:36;4.50;99.90
27376;DHT22;14844;51.302;6.354;2023-12-14T18:38:02;4.50;99.90
27376;DHT22;14844;51.302;6.354;2023-12-14T18:40:27;4.50;99.90
27376;DHT22;14844;51.302;6.354;2023-12-14T18:42:54;4.60;99.90
27376;DHT22;14844;51.302;6.354;2023-12-14T18:45:20;4.60;99.90
27376;DHT22;14844;51.302;6.354;2023-12-14T18:47:46;4.60;99.90
27376;DHT22;14844;51.302;6.354;2023-12-14T18:50:12;4.70;99.90
27376;DHT22;14844;51.302;6.354;2023-12-14T18:52:37;4.70;99.90
27376;DHT22;14844;51.302;6.354;2023-12-14T18:55:03;4.70;99.90
27376;DHT22;14844;51.302;6.354;2023-12-14T18:57:29;4.80;99.90
27376;DHT22;14844;51.302;6.354;2023-12-14T18:59:55;4.80;99.90
27376;DHT22;14844;51.302;6.354;2023-12-14T19:02:24;4.70;99.90
27376;DHT22;14844;51.302;6.354;2023-12-14T19:04:53;4.80;99.90
27376;DHT22;14844;51.302;6.354;2023-12-14T19:07:19;4.80;99.90
27376;DHT22;14844;51.302;6.354;2023-12-14T19:09:46;4.80;99.90
27376;DHT22;14844;51.302;6.354;2023-12-14T19:12:11;4.80;99.90
27376;DHT22;14844;51.302;6.354;2023-12-14T19:14:48;4.90;99.90
27376;DHT22;14844;51.302;6.354;2023-12-14T19:17:14;4.90;99.90
27376;DHT22;14844;51.302;6.354;2023-12-14T19:19:39;4.90;99.90
27376;DHT22;14844;51.302;6.354;2023-12-14T19:22:06;4.90;99.90
27376;DHT22;14844;51.302;6.354;2023-12-14T19:24:31;4.90;99.90
27376;DHT22;14844;51.302;6.354;2023-12-14T19:26:57;5.00;99.90
27376;DHT22;14844;51.302;6.354;2023-12-14T19:29:23;5.00;99.90
27376;DHT22;14844;51.302;6.354;2023-12-14T19:31:49;5.00;99.90
27376;DHT22;14844;51.302;6.354;2023-12-14T19:34:14;5.00;99.90
27376;DHT22;14844;51.302;6.354;2023-12-14T19:36:41;5.10;99.90
27376;DHT22;14844;51.302;6.354;2023-12-14T19:39:06;5.10;99.90
27376;DHT22;14844;51.302;6.354;2023-12-14T19:41:32;5.10;99.90
27376;DHT22;14844;51.302;6.354;2023-12-14T19:43:58;5.00;99.90
27376;DHT22;14844;51.302;6.354;2023-12-14T19:46:24;5.10;99.90
27376;DHT22;14844;51.302;6.354;2023-12-14T19:48:49;5.10;99.90
27376;DHT22;14844;51.302;6.354;2023-12-14T19:51:15;5.10;99.90
27376;DHT22;14844;51.302;6.354;2023-12-14T19:53:41;5.20;99.90
27376;DHT22;14844;51.302;6.354;2023-12-14T19:56:10;5.20;99.90
27376;DHT22;14844;51.302;6.354;2023-12-14T19:58:35;5.20;99.90
27376;DHT22;14844;51.302;6.354;2023-12-14T20:01:01;5.20;99.90
27376;DHT22;14844;51.302;6.354;2023-12-14T20:03:29;5.20;99.90
27376;DHT22;14844;51.302;6.354;2023-12-14T20:05:54;5.20;99.90
27376;DHT22;14844;51.302;6.354;2023-12-14T20:08:20;5.20;99.90
27376;DHT22;14844;51.302;6.354;2023-12-14T20:10:47;5.20;99.90
27376;DHT22;14844;51.302;6.354;2023-12-14T20:13:13;5.20;99.90
27376;DHT22;14844;51.302;6.354;2023-12-14T20:15:40;5.20;99.90
27376;DHT22;14844;51.302;6.354;2023-12-14T20:18:09;5.20;99.90
27376;DHT22;14844;51.302;6.354;2023-12-14T20:20:35;5.20;99.90
27376;DHT22;14844;51.302;6.354;2023-12-14T20:23:04;5.20;99.90
27376;DHT22;14844;51.302;6.354;2023-12-14T20:25:30;5.30;99.90
27376;DHT22;14844;51.302;6.354;2023-12-14T20:27:58;5.30;99.90
27376;DHT22;14844;51.302;6.354;2023-12-14T20:30:24;5.30;99.90
27376;DHT22;14844;51.302;6.354;2023-12-14T20:32:50;5.30;99.90
27376;DHT22;14844;51.302;6.354;2023-12-14T20:35:18;5.40;99.90
27376;DHT22;14844;51.302;6.354;2023-12-14T20:37:46;5.40;99.90
27376;DHT22;14844;51.302;6.354;2023-12-14T20:40:17;5.30;99.90
27376;DHT22;14844;51.302;6.354;2023-12-14T20:42:43;5.30;99.90
27376;DHT22;14844;51.302;6.354;2023-12-14T20:45:09;5.30;99.90
27376;DHT22;14844;51.302;6.354;2023-12-14T20:47:35;5.30;99.90
27376;DHT22;14844;51.302;6.354;2023-12-14T20:50:02;5.20;99.90
27376;DHT22;14844;51.302;6.354;2023-12-14T20:52:28;5.20;99.90
27376;DHT22;14844;51.302;6.354;2023-12-14T20:54:53;5.20;99.90
27376;DHT22;14844;51.302;6.354;2023-12-14T20:57:19;5.20;99.90
27376;DHT22;14844;51.302;6.354;2023-12-14T20:59:45;5.20;99.90
27376;DHT22;14844;51.302;6.354;2023-12-14T21:02:11;5.20;99.90
27376;DHT22;14844;51.302;6.354;2023-12-14T21:04:36;5.20;99.90
27376;DHT22;14844;51.302;6.354;2023-12-14T21:07:02;5.20;99.90
27376;DHT22;14844;51.302;6.354;2023-12-14T21:09:28;5.30;99.90
27376;DHT22;14844;51.302;6.354;2023-12-14T21:11:54;5.20;99.90
27376;DHT22;14844;51.302;6.354;2023-12-14T21:14:20;5.20;99.90
27376;DHT22;14844;51.302;6.354;2023-12-14T21:16:45;5.20;99.90
27376;DHT22;14844;51.302;6.354;2023-12-14T21:19:16;5.20;99.90
27376;DHT22;14844;51.302;6.354;2023-12-14T21:21:42;5.20;99.90
27376;DHT22;14844;51.302;6.354;2023-12-14T21:24:08;5.20;99.90
27376;DHT22;14844;51.302;6.354;2023-12-14T21:26:33;5.20;99.90
27376;DHT22;14844;51.302;6.354;2023-12-14T21:29:02;5.20;99.90
27376;DHT22;14844;51.302;6.354;2023-12-14T21:31:28;5.10;99.90
27376;DHT22;14844;51.302;6.354;2023-12-14T21:33:56;5.10;99.90
27376;DHT22;14844;51.302;6.354;2023-12-14T21:36:22;5.10;99.90
27376;DHT22;14844;51.302;6.354;2023-12-14T21:38:48;5.10;99.90
27376;DHT22;14844;51.302;6.354;2023-12-14T21:41:13;5.10;99.90
27376;DHT22;14844;51.302;6.354;2023-12-14T21:43:39;5.10;99.90
27376;DHT22;14844;51.302;6.354;2023-12-14T21:46:05;5.10;99.90
27376;DHT22;14844;51.302;6.354;2023-12-14T21:48:31;5.10;99.90
27376;DHT22;14844;51.302;6.354;2023-12-14T21:50:57;5.10;99.90
27376;DHT22;14844;51.302;6.354;2023-12-14T21:53:23;5.10;99.90
27376;DHT22;14844;51.302;6.354;2023-12-14T21:55:49;5.10;99.90
27376;DHT22;14844;51.302;6.354;2023-12-14T21:58:14;5.10;99.90
27376;DHT22;14844;51.302;6.354;2023-12-14T22:00:43;5.10;99.90
27376;DHT22;14844;51.302;6.354;2023-12-14T22:03:08;5.00;99.90
27376;DHT22;14844;51.302;6.354;2023-12-14T22:05:34;5.00;99.90
27376;DHT22;14844;51.302;6.354;2023-12-14T22:07:59;5.00;99.90
27376;DHT22;14844;51.302;6.354;2023-12-14T22:10:25;5.00;99.90
27376;DHT22;14844;51.302;6.354;2023-12-14T22:12:51;5.00;99.90
27376;DHT22;14844;51.302;6.354;2023-12-14T22:15:17;5.00;99.90
27376;DHT22;14844;51.302;6.354;2023-12-14T22:17:47;5.00;99.90
27376;DHT22;14844;51.302;6.354;2023-12-14T22:20:13;5.00;99.90
27376;DHT22;14844;51.302;6.354;2023-12-14T22:22:38;5.00;99.90
27376;DHT22;14844;51.302;6.354;2023-12-14T22:25:04;5.10;99.90
27376;DHT22;14844;51.302;6.354;2023-12-14T22:27:33;5.10;99.90
27376;DHT22;14844;51.302;6.354;2023-12-14T22:29:59;5.10;99.90
27376;DHT22;14844;51.302;6.354;2023-12-14T22:32:24;5.10;99.90
27376;DHT22;14844;51.302;6.354;2023-12-14T22:34:50;5.10;99.90
27376;DHT22;14844;51.302;6.354;2023-12-14T22:37:16;5.10;99.90
27376;DHT22;14844;51.302;6.354;2023-12-14T22:39:41;5.10;99.90
27376;DHT22;14844;51.302;6.354;2023-12-14T22:42:07;5.00;99.90
27376;DHT22;14844;51.302;6.354;2023-12-14T22:44:32;5.10;99.90
27376;DHT22;14844;51.302;6.354;2023-12-14T22:46:58;5.00;99.90
27376;DHT22;14844;51.302;6.354;2023-12-14T22:49:24;5.00;99.90
27376;DHT22;14844;51.302;6.354;2023-12-14T22:51:50;5.00;99.90
27376;DHT22;14844;51.302;6.354;2023-12-14T22:54:15;5.00;99.90
27376;DHT22;14844;51.302;6.354;2023-12-14T22:56:41;5.00;99.90
27376;DHT22;14844;51.302;6.354;2023-12-14T22:59:06;5.00;99.90
27376;DHT22;14844;51.302;6.354;2023-12-14T23:01:34;5.00;99.90